Rockport, Texas
Current Conditions -  °F | °C
As of 7:53 AM on Thursday 23 Oct 2014 (Local Time) from KRKP Reporting Station
Clear Clear  
Wind Chill: 68°   Ceiling: Unl
Heat Index: 68°   Visibility: 8mi
Dew Point: 64°   Wind: 8mph
Humidity: 87%   Direction: 30°NNE
Pressure: 30.07"   Gusts: NA
Location:  28.01°N, 97.06°W
Report Text: KRKP 231253Z AUTO 03007KT 8SM CLR 20/18 A3007 RMK AO2 SLP182 T02000178 $
Loading
Personal Weather Stations






























Interactive Weather Map
Tropical Storm Tracking
New forecast layout! Learn more

10-Day Weather Forecast

Advertisements
Track Severe Weather on mobile